Aérodrome :
LOGIN :

S'inscrire | Disclaimer

   EN    FR    IT 

 










Légende :    VFR   VFR Marginal   IFR   IFR Intensif   IFR Très Intensif
Visi : 
Plafond : 
>= 8 km
>= 3000ft
5 à 8 km
1000 à 3000 ft
1500m à 5 km
500 à 1000 ft
800 à 1500m
200 à 500 ft
< 800m
< 200 ft
Symboles :   Orages  Brouillard  Fortes neiges  Fortes précipitations  Vent > 20 kt
SIGMETs :   Divers  Orages  Givrage  Turbulence  Onde Orograph.  Cendres Volcan.







- Altitude de l'aérodrome : 74 ft
- Code IATA : MRS
- Voir les cartes d'approche


LFML - Marseille / Marignane

DERNIER METAR :
  • 211200Z AUTO 25010KT CAVOK 29/17 Q1016 NOSIG

METARs EXPIRÉS :
  • 211130Z AUTO 25010KT CAVOK 29/18 Q1017 NOSIG
  • 211100Z AUTO 26011KT CAVOK 28/19 Q1017 NOSIG
  • 211030Z AUTO 27006KT CAVOK 28/18 Q1017 NOSIG
  • 211000Z AUTO 26004KT 230V290 CAVOK 28/16 Q1017 NOSIG
  • 210930Z AUTO 29005KT CAVOK 27/19 Q1017 NOSIG

TAF AMD TAF LFML
Valide du 21 à 09h jusqu'au 22 à 15h UTC


210846Z 2109/2215 VRB05KT CAVOK TX30/2112Z TN20/2203Z
TEMPO 2109/2112 30008KT
BECMG 2112/2113 26008KT
BECMG 2116/2117 VRB05KT
BECMG 2119/2120 32015G25KT
BECMG 2211/2212 32020G30KT
ATIS : +33 4 42 31 15 15
Pas de NOTAMs connus pour ce terrain.



MET'MAP, la Météo Aéronautique d'un coup d'oeil ! - Copyright ORBIFLY Décembre 2007 - Disclaimer

ORBIFLY MET'MAP TEAM :

Programmation & Développement : Alexandra Zaïnal
Conception & Développement : Baudouin d'Aumeries
Co-Programmation & Développement : Marc-Olivier Méhu
Soutien technique & logistique : Manuel Goepfert

Contact : metmap@orbifly.com




SOURCES & CREDITS :

   NOAA